createdAt,value
2022-09-07T00:01:11.642Z,99451.78
2022-09-07T00:03:38.528Z,99441.16
2022-09-07T00:06:08.296Z,99449.69
2022-09-07T00:08:35.214Z,99450.25
2022-09-07T00:11:05.255Z,99448.81
2022-09-07T00:13:35.686Z,99447.91
2022-09-07T00:16:07.838Z,99442.94
2022-09-07T00:18:34.876Z,99454.78
2022-09-07T00:21:08.304Z,99447.47
2022-09-07T00:23:37.938Z,99451.34
2022-09-07T00:26:14.033Z,99449.13
2022-09-07T00:28:41.475Z,99451.09
2022-09-07T00:31:13.996Z,99443.38
2022-09-07T00:33:41.084Z,99447.25
2022-09-07T00:36:08.019Z,99455.56
2022-09-07T00:38:35.678Z,99445.06
2022-09-07T00:41:03.003Z,99442.75
2022-09-07T00:43:54.274Z,99438.53
2022-09-07T00:46:29.827Z,99440.63
2022-09-07T00:49:14.621Z,99435.00
2022-09-07T00:51:50.990Z,99426.78
2022-09-07T00:54:28.882Z,99433.22
2022-09-07T00:56:55.809Z,99431.00
2022-09-07T00:59:29.365Z,99431.34
2022-09-07T01:01:56.747Z,99418.63
2022-09-07T01:04:24.289Z,99424.59
2022-09-07T01:06:55.539Z,99421.03
2022-09-07T01:09:24.508Z,99413.41
2022-09-07T01:11:53.880Z,99426.34
2022-09-07T01:14:26.553Z,99418.28
2022-09-07T01:17:17.603Z,99406.91
2022-09-07T01:20:06.462Z,99408.69
2022-09-07T01:22:52.619Z,99414.31
2022-09-07T01:25:53.881Z,99414.84
2022-09-07T01:28:29.432Z,99417.84
2022-09-07T01:31:07.686Z,99408.34
2022-09-07T01:33:57.180Z,99408.69
2022-09-07T01:36:55.677Z,99408.25
2022-09-07T01:39:30.497Z,99406.13
2022-09-07T01:42:13.473Z,99410.03
2022-09-07T01:44:46.689Z,99407.78
2022-09-07T01:47:19.335Z,99404.03
2022-09-07T01:49:53.265Z,99413.78
2022-09-07T01:52:58.805Z,99407.56
2022-09-07T01:55:37.555Z,99406.34
2022-09-07T01:58:19.836Z,99398.94
2022-09-07T02:00:53.123Z,99401.72
2022-09-07T02:03:35.885Z,99402.91
2022-09-07T02:06:17.216Z,99399.84
2022-09-07T02:09:03.057Z,99396.56
2022-09-07T02:11:45.584Z,99397.41
2022-09-07T02:14:12.358Z,99395.28
2022-09-07T02:16:48.756Z,99398.06
2022-09-07T02:19:19.328Z,99396.63
2022-09-07T02:21:54.248Z,99390.50
2022-09-07T02:24:29.098Z,99387.16
2022-09-07T02:26:56.087Z,99392.25
2022-09-07T02:29:22.964Z,99393.00
2022-09-07T02:31:49.788Z,99390.00
2022-09-07T02:34:16.721Z,99392.03
2022-09-07T02:36:49.917Z,99389.91
2022-09-07T02:39:17.288Z,99389.13
2022-09-07T02:41:45.901Z,99385.13
2022-09-07T02:44:15.660Z,99390.25
2022-09-07T02:47:10.649Z,99380.41
2022-09-07T02:49:58.660Z,99378.28
2022-09-07T02:53:23.003Z,99373.19
2022-09-07T02:55:59.399Z,99372.88
2022-09-07T02:58:53.706Z,99379.81
2022-09-07T03:01:49.744Z,99388.00
2022-09-07T03:04:28.447Z,99384.72
2022-09-07T03:07:08.325Z,99388.25
2022-09-07T03:09:38.828Z,99387.34
2022-09-07T03:12:06.835Z,99383.78
2022-09-07T03:14:34.268Z,99389.03
2022-09-07T03:17:02.045Z,99383.19
2022-09-07T03:19:28.873Z,99385.66
2022-09-07T03:21:55.612Z,99379.56
2022-09-07T03:24:22.934Z,99383.44
2022-09-07T03:26:49.856Z,99382.22
2022-09-07T03:29:16.858Z,99392.50
2022-09-07T03:31:43.712Z,99390.91
2022-09-07T03:34:11.166Z,99387.31
2022-09-07T03:36:38.422Z,99384.75
2022-09-07T03:39:05.857Z,99373.81
2022-09-07T03:41:32.677Z,99381.34
2022-09-07T03:44:04.518Z,99383.34
2022-09-07T03:46:31.498Z,99385.88
2022-09-07T03:48:58.367Z,99382.25
2022-09-07T03:51:25.197Z,99386.38
2022-09-07T03:53:52.021Z,99394.09
2022-09-07T03:56:21.701Z,99394.63
2022-09-07T03:58:49.860Z,99389.78
2022-09-07T04:01:19.713Z,99388.66
2022-09-07T04:03:46.829Z,99392.63
2022-09-07T04:06:14.212Z,99391.19
2022-09-07T04:08:42.449Z,99395.19
2022-09-07T04:11:13.112Z,99392.53
2022-09-07T04:13:40.749Z,99390.13
2022-09-07T04:16:13.172Z,99395.06
2022-09-07T04:18:40.872Z,99396.50
2022-09-07T04:21:09.113Z,99396.50
2022-09-07T04:23:41.604Z,99395.59
2022-09-07T04:26:15.223Z,99399.22
2022-09-07T04:28:42.146Z,99405.38
2022-09-07T04:31:09.083Z,99401.75
2022-09-07T04:33:35.903Z,99407.16
2022-09-07T04:36:03.325Z,99408.16
2022-09-07T04:38:30.737Z,99402.78
2022-09-07T04:41:02.377Z,99419.34
2022-09-07T04:43:30.776Z,99411.81
2022-09-07T04:46:19.235Z,99405.56
2022-09-07T04:48:55.060Z,99414.16
2022-09-07T04:51:23.618Z,99407.59
2022-09-07T04:53:52.976Z,99405.66
2022-09-07T04:56:21.908Z,99403.84
2022-09-07T04:58:49.548Z,99403.59
2022-09-07T05:01:20.019Z,99413.53
2022-09-07T05:03:48.229Z,99411.16
2022-09-07T05:06:17.238Z,99416.44
2022-09-07T05:08:47.340Z,99418.44
2022-09-07T05:11:15.501Z,99424.00
2022-09-07T05:13:42.974Z,99428.63
2022-09-07T05:16:12.841Z,99429.69
2022-09-07T05:18:40.053Z,99437.91
2022-09-07T05:21:08.801Z,99445.06
2022-09-07T05:23:35.791Z,99441.66
2022-09-07T05:26:04.371Z,99449.81
2022-09-07T05:28:31.655Z,99443.41
2022-09-07T05:31:24.835Z,99440.19
2022-09-07T05:36:41.575Z,99446.84
2022-09-07T05:39:08.987Z,99446.97
2022-09-07T05:41:35.784Z,99449.16
2022-09-07T05:46:51.966Z,99449.19
2022-09-07T05:49:18.889Z,99448.84
2022-09-07T05:51:45.717Z,99444.09
2022-09-07T05:54:12.618Z,99450.28
2022-09-07T05:56:39.568Z,99447.72
2022-09-07T05:59:06.405Z,99447.50
2022-09-07T06:01:33.541Z,99451.06
2022-09-07T06:04:00.487Z,99455.13
2022-09-07T06:06:27.351Z,99460.44
2022-09-07T06:08:54.419Z,99452.97
2022-09-07T06:11:25.918Z,99460.09
2022-09-07T06:13:53.139Z,99454.22
2022-09-07T06:16:20.796Z,99453.41
2022-09-07T06:18:49.698Z,99454.13
2022-09-07T06:21:19.960Z,99457.88
2022-09-07T06:23:48.104Z,99450.13
2022-09-07T06:26:17.259Z,99452.13
2022-09-07T06:28:49.158Z,99455.31
2022-09-07T06:31:20.351Z,99459.03
2022-09-07T06:33:48.442Z,99455.50
2022-09-07T06:36:20.345Z,99454.03
2022-09-07T06:38:48.544Z,99445.56
2022-09-07T06:44:20.543Z,99454.88
2022-09-07T06:47:02.806Z,99452.84
2022-09-07T06:49:30.084Z,99451.59
2022-09-07T06:51:56.926Z,99454.75
2022-09-07T06:57:10.567Z,99448.38
2022-09-07T06:59:38.108Z,99450.50
2022-09-07T07:02:06.578Z,99445.41
2022-09-07T07:04:39.570Z,99451.72
2022-09-07T07:07:10.359Z,99455.38
2022-09-07T07:09:37.358Z,99453.28
2022-09-07T07:12:04.321Z,99460.66
2022-09-07T07:14:34.293Z,99465.53
2022-09-07T07:17:03.085Z,99462.88
2022-09-07T07:19:30.004Z,99456.47
2022-09-07T07:24:43.656Z,99466.22
2022-09-07T07:27:10.411Z,99451.00
2022-09-07T07:29:37.225Z,99457.09
2022-09-07T07:32:04.112Z,99462.34
2022-09-07T07:34:30.966Z,99456.47
2022-09-07T07:36:57.811Z,99462.34
2022-09-07T07:42:11.399Z,99462.25
2022-09-07T07:44:38.185Z,99459.06
2022-09-07T07:47:05.139Z,99465.31
2022-09-07T07:49:31.946Z,99465.16
2022-09-07T07:54:45.673Z,99459.34
2022-09-07T07:57:12.705Z,99465.75
2022-09-07T07:59:39.659Z,99461.44
2022-09-07T08:02:07.419Z,99474.91
2022-09-07T08:04:35.238Z,99480.00
2022-09-07T08:07:08.598Z,99462.16
2022-09-07T08:09:37.508Z,99467.31
2022-09-07T08:12:04.288Z,99469.34
2022-09-07T08:14:31.201Z,99471.41
2022-09-07T08:16:57.973Z,99466.66
2022-09-07T08:19:25.277Z,99459.47
2022-09-07T08:21:51.995Z,99458.03
2022-09-07T08:24:18.822Z,99455.06
2022-09-07T08:26:45.552Z,99459.69
2022-09-07T08:29:13.569Z,99462.47
2022-09-07T08:31:40.380Z,99454.94
2022-09-07T08:34:07.240Z,99459.94
2022-09-07T08:36:34.085Z,99456.56
2022-09-07T08:39:01.083Z,99454.25
2022-09-07T08:41:58.604Z,99455.88
2022-09-07T08:44:28.175Z,99458.66
2022-09-07T08:46:59.734Z,99451.41
2022-09-07T08:49:43.044Z,99451.81
2022-09-07T08:52:21.674Z,99448.41
2022-09-07T08:55:01.175Z,99450.47
2022-09-07T08:57:31.125Z,99459.63
2022-09-07T09:00:06.062Z,99447.47
2022-09-07T09:05:30.436Z,99455.59
2022-09-07T09:06:11.141Z,99456.19
2022-09-07T09:08:14.875Z,99449.50
2022-09-07T09:11:26.708Z,99444.59
2022-09-07T09:14:24.368Z,99444.28
2022-09-07T09:17:27.889Z,99447.75
2022-09-07T09:20:03.746Z,99448.97
2022-09-07T09:22:30.620Z,99450.09
2022-09-07T09:25:46.963Z,99455.50
2022-09-07T09:28:13.978Z,99452.09
2022-09-07T09:30:40.811Z,99445.25
2022-09-07T09:33:28.811Z,99446.50
2022-09-07T09:35:58.987Z,99448.44
2022-09-07T09:38:38.852Z,99443.94
2022-09-07T09:41:13.681Z,99433.25
2022-09-07T09:43:44.347Z,99428.28
2022-09-07T09:46:37.095Z,99430.22
2022-09-07T09:49:14.853Z,99434.47
2022-09-07T09:54:41.158Z,99426.06
2022-09-07T09:57:15.634Z,99415.69
2022-09-07T10:00:01.470Z,99418.03
2022-09-07T10:05:41.106Z,99416.16
2022-09-07T10:08:25.973Z,99408.84
2022-09-07T10:11:00.062Z,99402.34
2022-09-07T10:13:35.096Z,99399.66
2022-09-07T10:16:10.602Z,99395.47
2022-09-07T10:18:40.719Z,99396.25
2022-09-07T10:21:23.180Z,99388.59
2022-09-07T10:23:57.979Z,99384.75
2022-09-07T10:26:34.174Z,99388.97
2022-09-07T10:29:11.659Z,99380.94
2022-09-07T10:31:45.355Z,99378.66
2022-09-07T10:34:27.485Z,99377.56
2022-09-07T10:37:01.962Z,99382.56
2022-09-07T10:40:02.805Z,99379.88
2022-09-07T10:42:32.921Z,99383.34
2022-09-07T10:48:01.393Z,99371.44
2022-09-07T10:50:32.927Z,99376.06
2022-09-07T10:53:37.010Z,99382.59
2022-09-07T10:56:06.787Z,99371.84
2022-09-07T10:59:03.387Z,99372.63
2022-09-07T11:01:54.633Z,99364.56
2022-09-07T11:04:43.706Z,99362.66
2022-09-07T11:07:38.680Z,99353.44
2022-09-07T11:10:24.573Z,99353.06
2022-09-07T11:12:56.920Z,99351.50
2022-09-07T11:15:45.926Z,99352.31
2022-09-07T11:18:25.006Z,99356.13
2022-09-07T11:20:55.507Z,99345.38
2022-09-07T11:23:25.463Z,99353.47
2022-09-07T11:25:55.081Z,99341.56
2022-09-07T11:29:29.067Z,99345.38
2022-09-07T11:31:40.598Z,99345.78
2022-09-07T11:34:29.591Z,99341.56
2022-09-07T11:37:21.359Z,99333.09
2022-09-07T11:40:09.689Z,99333.09
2022-09-07T11:42:49.914Z,99322.31
2022-09-07T11:45:28.573Z,99321.94
2022-09-07T11:48:01.633Z,99313.13
2022-09-07T11:50:33.832Z,99311.56
2022-09-07T11:53:04.603Z,99303.84
2022-09-07T11:55:40.485Z,99301.53
2022-09-07T11:58:16.225Z,99304.19
2022-09-07T12:00:58.680Z,99301.53
2022-09-07T12:03:56.357Z,99301.09
2022-09-07T12:07:04.611Z,99287.63
2022-09-07T12:09:43.130Z,99289.59
2022-09-07T12:12:35.372Z,99286.88
2022-09-07T12:15:46.775Z,99299.16
2022-09-07T12:18:33.201Z,99286.44
2022-09-07T12:21:00.270Z,99287.19
2022-09-07T12:23:31.591Z,99291.81
2022-09-07T12:26:32.368Z,99295.25
2022-09-07T12:28:59.115Z,99284.53
2022-09-07T12:31:58.377Z,99286.06
2022-09-07T12:34:32.069Z,99276.84
2022-09-07T12:37:03.633Z,99268.75
2022-09-07T12:39:32.055Z,99266.81
2022-09-07T12:45:28.361Z,99255.22
2022-09-07T12:48:24.557Z,99250.84
2022-09-07T12:51:07.853Z,99256.38
2022-09-07T12:53:52.099Z,99249.75
2022-09-07T12:57:28.949Z,99258.66
2022-09-07T12:59:39.707Z,99258.69
2022-09-07T13:02:32.767Z,99258.28
2022-09-07T13:05:19.868Z,99257.06
2022-09-07T13:08:15.032Z,99256.38
2022-09-07T13:10:43.615Z,99251.44
2022-09-07T13:13:16.809Z,99252.66
2022-09-07T13:15:46.240Z,99245.41
2022-09-07T13:18:28.365Z,99245.78
2022-09-07T13:21:30.636Z,99234.22
2022-09-07T13:27:11.495Z,99234.06
2022-09-07T13:29:42.001Z,99233.31
2022-09-07T13:35:22.875Z,99229.34
2022-09-07T13:37:54.410Z,99221.25
2022-09-07T13:40:26.814Z,99209.72
2022-09-07T13:42:56.644Z,99212.69
2022-09-07T13:45:30.312Z,99220.41
2022-09-07T13:48:16.782Z,99216.97
2022-09-07T13:50:52.446Z,99206.28
2022-09-07T13:54:03.593Z,99204.75
2022-09-07T13:56:33.420Z,99216.31
2022-09-07T13:59:12.222Z,99215.59
2022-09-07T14:01:45.356Z,99215.97
2022-09-07T14:04:34.150Z,99220.53
2022-09-07T14:07:06.957Z,99227.81
2022-09-07T14:09:34.645Z,99224.19
2022-09-07T14:12:02.708Z,99224.09
2022-09-07T14:14:31.130Z,99221.69
2022-09-07T14:17:00.681Z,99224.38
2022-09-07T14:19:48.810Z,99218.19
2022-09-07T14:22:19.757Z,99220.06
2022-09-07T14:25:00.778Z,99208.38
2022-09-07T14:27:41.068Z,99215.69
2022-09-07T14:30:19.999Z,99214.91
2022-09-07T14:32:49.069Z,99219.47
2022-09-07T14:35:18.711Z,99203.69
2022-09-07T14:37:47.153Z,99188.94
2022-09-07T14:40:18.571Z,99199.31
2022-09-07T14:42:45.671Z,99197.38
2022-09-07T14:45:33.666Z,99201.66
2022-09-07T14:48:11.472Z,99212.47
2022-09-07T14:50:41.032Z,99217.13
2022-09-07T14:56:10.785Z,99212.97
2022-09-07T14:58:37.635Z,99213.41
2022-09-07T15:04:01.248Z,99226.56
2022-09-07T15:09:37.700Z,99214.28
2022-09-07T15:12:36.375Z,99214.03
2022-09-07T15:15:18.420Z,99236.78
2022-09-07T15:17:45.907Z,99235.25
2022-09-07T15:20:38.702Z,99232.94
2022-09-07T15:23:15.883Z,99225.63
2022-09-07T15:25:49.831Z,99230.63
2022-09-07T15:34:01.887Z,99240.75
2022-09-07T15:36:28.778Z,99234.22
2022-09-07T15:39:00.641Z,99233.44
2022-09-07T15:41:28.780Z,99226.16
2022-09-07T15:43:56.818Z,99219.22
2022-09-07T15:46:25.053Z,99221.53
2022-09-07T15:48:55.140Z,99206.50
2022-09-07T15:54:13.164Z,99208.94
2022-09-07T15:56:41.654Z,99210.09
2022-09-07T15:59:10.315Z,99219.34
2022-09-07T16:01:53.032Z,99208.97
2022-09-07T16:04:20.923Z,99207.72
2022-09-07T16:06:50.346Z,99198.88
2022-09-07T16:09:17.514Z,99195.84
2022-09-07T16:11:44.705Z,99197.09
2022-09-07T16:14:11.557Z,99189.44
2022-09-07T16:19:26.147Z,99188.69
2022-09-07T16:21:57.182Z,99187.97
2022-09-07T16:24:24.519Z,99185.28
2022-09-07T16:26:51.398Z,99168.38
2022-09-07T16:29:18.465Z,99152.22
2022-09-07T16:34:32.256Z,99133.78
2022-09-07T16:36:59.009Z,99122.22
2022-09-07T16:39:25.887Z,99104.44
2022-09-07T16:41:52.678Z,99093.53
2022-09-07T16:44:19.493Z,99099.88
2022-09-07T16:46:46.379Z,99109.50
2022-09-07T16:49:13.597Z,99115.94
2022-09-07T16:51:40.461Z,99108.97
2022-09-07T16:54:07.266Z,99112.06
2022-09-07T16:56:38.813Z,99118.03
2022-09-07T16:59:07.223Z,99123.75
2022-09-07T17:01:36.288Z,99129.59
2022-09-07T17:04:08.232Z,99140.63
2022-09-07T17:06:39.622Z,99142.31
2022-09-07T17:09:07.664Z,99139.00
2022-09-07T17:11:36.802Z,99131.31
2022-09-07T17:14:04.253Z,99137.88
2022-09-07T17:16:34.092Z,99136.72
2022-09-07T17:21:48.340Z,99143.41
2022-09-07T17:24:15.149Z,99138.13
2022-09-07T17:26:42.727Z,99135.09
2022-09-07T17:29:10.427Z,99145.63
2022-09-07T17:34:25.279Z,99151.38
2022-09-07T17:36:52.057Z,99151.81
2022-09-07T17:39:19.705Z,99149.53
2022-09-07T17:41:48.911Z,99152.69
2022-09-07T17:44:17.490Z,99154.63
2022-09-07T17:46:45.661Z,99153.88
2022-09-07T17:49:13.193Z,99160.47
2022-09-07T17:51:40.162Z,99160.91
2022-09-07T17:54:11.504Z,99158.25
2022-09-07T17:56:40.498Z,99154.44
2022-09-07T18:01:56.018Z,99162.22
2022-09-07T18:04:23.954Z,99150.75
2022-09-07T18:06:51.393Z,99152.66
2022-09-07T18:09:18.786Z,99146.53
2022-09-07T18:11:47.677Z,99150.41
2022-09-07T18:14:16.700Z,99154.59
2022-09-07T18:16:45.811Z,99158.84
2022-09-07T18:19:14.967Z,99160.75
2022-09-07T18:21:43.958Z,99154.63
2022-09-07T18:24:19.023Z,99160.41
2022-09-07T18:26:51.080Z,99157.31
2022-09-07T18:29:29.999Z,99152.75
2022-09-07T18:31:59.283Z,99151.63
2022-09-07T18:34:27.057Z,99159.28
2022-09-07T18:36:55.205Z,99152.03
2022-09-07T18:39:22.991Z,99153.19
2022-09-07T18:41:50.789Z,99150.53
2022-09-07T18:47:05.848Z,99150.94
2022-09-07T18:49:33.524Z,99148.25
2022-09-07T18:54:48.575Z,99153.25
2022-09-07T18:57:15.894Z,99153.59
2022-09-07T18:59:43.445Z,99160.88
2022-09-07T19:02:11.342Z,99165.47
2022-09-07T19:07:30.039Z,99167.81
2022-09-07T19:09:57.648Z,99177.38
2022-09-07T19:12:26.143Z,99174.28
2022-09-07T19:14:54.032Z,99172.00
2022-09-07T19:17:21.418Z,99180.06
2022-09-07T19:19:48.708Z,99178.53
2022-09-07T19:22:15.978Z,99175.06
2022-09-07T19:24:43.190Z,99174.69
2022-09-07T19:27:10.473Z,99177.72
2022-09-07T19:29:37.771Z,99178.88
2022-09-07T19:32:05.084Z,99175.03
2022-09-07T19:34:37.172Z,99170.44
2022-09-07T19:37:08.623Z,99172.72
2022-09-07T19:39:36.258Z,99166.59
2022-09-07T19:42:05.992Z,99167.75
2022-09-07T19:44:33.790Z,99162.34
2022-09-07T19:47:01.377Z,99150.47
2022-09-07T19:49:28.666Z,99155.06
2022-09-07T19:51:56.065Z,99151.22
2022-09-07T19:54:23.520Z,99156.97
2022-09-07T19:56:50.889Z,99150.06
2022-09-07T19:59:18.200Z,99148.53
2022-09-07T20:01:46.308Z,99145.81
2022-09-07T20:04:19.775Z,99148.06
2022-09-07T20:06:48.357Z,99154.19
2022-09-07T20:09:16.090Z,99136.59
2022-09-07T20:11:46.600Z,99135.06
2022-09-07T20:14:18.656Z,99140.41
2022-09-07T20:16:46.153Z,99138.88
2022-09-07T20:19:14.785Z,99137.69
2022-09-07T20:21:43.343Z,99143.38
2022-09-07T20:24:13.721Z,99140.69
2022-09-07T20:26:40.885Z,99136.13
2022-09-07T20:31:56.300Z,99137.97
2022-09-07T20:34:23.924Z,99141.41
2022-09-07T20:36:52.784Z,99144.84
2022-09-07T20:39:20.372Z,99131.00
2022-09-07T20:41:48.089Z,99133.28
2022-09-07T20:44:17.042Z,99129.78
2022-09-07T20:46:44.134Z,99125.22
2022-09-07T20:49:10.957Z,99124.84
2022-09-07T20:51:38.307Z,99120.97
2022-09-07T20:54:05.187Z,99128.91
2022-09-07T20:56:31.968Z,99123.16
2022-09-07T20:59:01.149Z,99125.38
2022-09-07T21:01:30.200Z,99118.53
2022-09-07T21:03:59.054Z,99117.75
2022-09-07T21:06:27.810Z,99118.47
2022-09-07T21:08:55.637Z,99106.13
2022-09-07T21:11:28.640Z,99110.00
2022-09-07T21:14:07.973Z,99111.75
2022-09-07T21:16:36.254Z,99105.09
2022-09-07T21:19:05.958Z,99107.03
2022-09-07T21:21:39.331Z,99112.34
2022-09-07T21:24:14.500Z,99110.41
2022-09-07T21:26:41.803Z,99104.66
2022-09-07T21:29:16.003Z,99098.94
2022-09-07T21:31:43.164Z,99105.00
2022-09-07T21:34:10.536Z,99101.94
2022-09-07T21:36:37.507Z,99098.00
2022-09-07T21:39:04.367Z,99090.78
2022-09-07T21:41:31.539Z,99095.28
2022-09-07T21:43:59.988Z,99098.72
2022-09-07T21:46:28.793Z,99090.94
2022-09-07T21:48:57.379Z,99094.28
2022-09-07T21:51:24.995Z,99089.63
2022-09-07T21:53:55.542Z,99078.59
2022-09-07T21:56:22.297Z,99083.19
2022-09-07T21:58:54.108Z,99087.31
2022-09-07T22:01:21.849Z,99087.66
2022-09-07T22:03:55.222Z,99082.25
2022-09-07T22:06:22.270Z,99088.22
2022-09-07T22:08:49.229Z,99082.72
2022-09-07T22:11:19.729Z,99098.44
2022-09-07T22:13:46.498Z,99093.41
2022-09-07T22:16:14.039Z,99091.44
2022-09-07T22:18:46.054Z,99077.78
2022-09-07T22:21:16.072Z,99084.84
2022-09-07T22:23:49.049Z,99083.91
2022-09-07T22:26:19.763Z,99081.81
2022-09-07T22:28:47.290Z,99083.09
2022-09-07T22:31:21.161Z,99081.63
2022-09-07T22:33:49.489Z,99074.69
2022-09-07T22:36:25.252Z,99080.38
2022-09-07T22:38:57.573Z,99079.81
2022-09-07T22:41:27.625Z,99071.09
2022-09-07T22:43:54.673Z,99067.34
2022-09-07T22:46:23.976Z,99066.69
2022-09-07T22:48:50.873Z,99063.53
2022-09-07T22:51:17.808Z,99053.38
2022-09-07T22:53:45.088Z,99054.69
2022-09-07T22:56:15.285Z,99050.72
2022-09-07T22:58:46.785Z,99048.66
2022-09-07T23:01:14.508Z,99050.91
2022-09-07T23:03:41.507Z,99048.72
2022-09-07T23:06:08.587Z,99042.97
2022-09-07T23:08:35.358Z,99034.41
2022-09-07T23:11:03.926Z,99033.31
2022-09-07T23:13:31.867Z,99021.25
2022-09-07T23:16:08.072Z,99017.13
2022-09-07T23:18:35.230Z,99017.59
2022-09-07T23:21:02.526Z,99012.91
2022-09-07T23:23:29.852Z,99006.53
2022-09-07T23:25:56.759Z,99002.16
2022-09-07T23:28:23.622Z,98994.03
2022-09-07T23:30:51.807Z,98987.63
2022-09-07T23:33:18.745Z,98987.84
2022-09-07T23:36:05.431Z,98987.03
2022-09-07T23:38:33.082Z,98985.34
2022-09-07T23:41:00.773Z,98982.47
2022-09-07T23:43:29.437Z,98971.00
2022-09-07T23:45:59.061Z,98969.41
2022-09-07T23:48:26.338Z,98967.13
2022-09-07T23:50:54.731Z,98972.84
2022-09-07T23:53:21.785Z,98973.72
2022-09-07T23:55:50.962Z,98976.16
2022-09-07T23:58:19.187Z,98970.91
